Albany, New York
Traffic Map
Current Weather Conditions
Albany, New York
Broken Clouds
Broken Clouds
21°
Feels Like: 21°
Wind Chill: 21° Ceiling: 8000
Heat Index: 21° Visibility: 10mi
Dew Point: 11° Wind: 15mph
Humidity: 54% Direction: 290° (WNW)
Pressure: 29.97in Gusts: 23mph
Raw Report DataKALB 282251Z 29013G20KT 10SM SCT070 BKN080 BKN095 21/11 A2997 RMK AO2 SLP147 T02060111
Traffic Incident Summary
Active as of:
Severity:
Category:
InformationThere was an issue retrieving the traffic information for this location. Please try a different location or try again shortly.
Advertisements
Track Severe Weather on mobile